Time;durP1;ratioP1;P1;durP2;ratioP2;P2;SDS_P1;SDS_P2;PMS_P1;PMS_P2;Temp;Humidity;BMP_temperature;BMP_pressure;BME280_temperature;BME280_humidity;BME280_pressure;Samples;Min_cycle;Max_cycle;Signal;HPM_P1;HPM_P2
2020/12/06 00:02:15;;;;;;;46.08;26.13;;;;;;;9.70;100.00;101810.13;5072229;28;20059;-66
2020/12/06 00:05:02;;;;;;;41.83;25.42;;;;;;;9.79;100.00;101820.63;5052128;28;20036;-67
2020/12/06 00:07:48;;;;;;;45.05;25.45;;;;;;;9.89;100.00;101815.41;5052042;28;20060;-66
2020/12/06 00:10:33;;;;;;;43.72;24.98;;;;;;;9.79;100.00;101818.00;5052403;28;20108;-67
2020/12/06 00:13:18;;;;;;;46.28;26.60;;;;;;;9.73;100.00;101825.84;5052238;28;20119;-66
2020/12/06 00:16:04;;;;;;;41.30;24.63;;;;;;;9.52;100.00;101821.41;5052248;28;20112;-66
2020/12/06 00:18:49;;;;;;;45.05;25.60;;;;;;;9.55;100.00;101826.66;5052409;28;20036;-66
2020/12/06 00:21:35;;;;;;;37.35;23.42;;;;;;;9.69;100.00;101829.34;5052762;28;20479;-66
2020/12/06 00:24:21;;;;;;;38.95;23.88;;;;;;;9.93;100.00;101826.78;5038115;28;20056;-66
2020/12/06 00:27:07;;;;;;;40.33;24.27;;;;;;;9.58;100.00;101829.28;5052295;28;20075;-66
2020/12/06 00:29:52;;;;;;;40.97;23.98;;;;;;;9.50;100.00;101827.50;5052315;28;20491;-66
2020/12/06 00:32:38;;;;;;;50.80;25.40;;;;;;;9.64;100.00;101818.84;5052575;28;20357;-66
2020/12/06 00:35:24;;;;;;;43.53;23.75;;;;;;;9.85;100.00;101821.50;5051863;28;20430;-65
2020/12/06 00:38:09;;;;;;;39.33;24.13;;;;;;;9.78;100.00;101818.88;5052055;28;20519;-67
2020/12/06 00:40:54;;;;;;;43.28;23.58;;;;;;;9.30;100.00;101818.69;5051926;28;20028;-67
2020/12/06 00:43:40;;;;;;;38.33;23.52;;;;;;;9.62;100.00;101812.69;5038056;28;20091;-67
2020/12/06 00:46:26;;;;;;;38.35;22.52;;;;;;;9.73;100.00;101810.16;5051939;28;20132;-67
2020/12/06 00:49:11;;;;;;;37.92;23.85;;;;;;;10.04;100.00;101798.88;5037991;28;20338;-67
2020/12/06 00:51:58;;;;;;;36.88;22.98;;;;;;;10.07;100.00;101791.06;5051946;28;20037;-68
2020/12/06 00:54:43;;;;;;;40.90;23.10;;;;;;;9.87;100.00;101790.13;5037630;28;20112;-67
2020/12/06 00:57:28;;;;;;;35.38;21.10;;;;;;;9.71;100.00;101790.94;5051961;28;20036;-68
2020/12/06 01:00:14;;;;;;;35.47;21.92;;;;;;;9.82;100.00;101792.72;5051608;28;20036;-67
2020/12/06 01:03:00;;;;;;;36.20;22.20;;;;;;;9.75;100.00;101793.59;5051973;28;20045;-66
2020/12/06 01:05:45;;;;;;;38.58;22.17;;;;;;;9.66;100.00;101796.16;5062956;28;20037;-65
2020/12/06 01:08:30;;;;;;;35.80;21.35;;;;;;;9.39;100.00;101793.44;5051643;28;20437;-65
2020/12/06 01:11:16;;;;;;;34.95;21.75;;;;;;;9.34;100.00;101794.28;5051627;28;20029;-65
2020/12/06 01:14:01;;;;;;;34.13;22.00;;;;;;;9.32;100.00;101788.16;5052003;28;20377;-65
2020/12/06 01:16:50;;;;;;;33.50;21.30;;;;;;;9.52;100.00;101784.78;5055660;28;20029;-66
2020/12/06 01:19:36;;;;;;;37.30;21.67;;;;;;;9.34;100.00;101779.47;5055246;28;20037;-66
2020/12/06 01:22:21;;;;;;;33.60;22.60;;;;;;;9.32;100.00;101775.97;5041615;28;20032;-65
2020/12/06 01:25:07;;;;;;;33.13;21.05;;;;;;;9.27;100.00;101779.44;5055243;28;20151;-67
2020/12/06 01:27:52;;;;;;;40.97;22.80;;;;;;;9.40;100.00;101781.22;5055143;28;20033;-65
2020/12/06 01:30:38;;;;;;;33.28;20.95;;;;;;;9.37;100.00;101776.84;5055001;28;20476;-66
2020/12/06 01:33:23;;;;;;;40.03;23.20;;;;;;;9.11;100.00;101778.50;5055512;28;20037;-65
2020/12/06 01:36:08;;;;;;;40.53;23.88;;;;;;;9.43;100.00;101783.84;5055232;28;20060;-66
2020/12/06 01:38:54;;;;;;;41.35;24.60;;;;;;;9.65;100.00;101786.56;5055106;28;20033;-66
2020/12/06 01:41:39;;;;;;;42.45;24.08;;;;;;;9.53;100.00;101785.66;5054991;28;20377;-66
2020/12/06 01:44:26;;;;;;;40.35;24.25;;;;;;;9.29;100.00;101788.19;5054928;28;20048;-65
2020/12/06 01:47:12;;;;;;;41.88;25.10;;;;;;;9.64;100.00;101784.81;5054869;28;20033;-65
2020/12/06 01:49:58;;;;;;;36.58;22.45;;;;;;;9.26;100.00;101789.03;5054706;28;20093;-66
2020/12/06 01:52:46;;;;;;;41.25;22.17;;;;;;;9.35;100.00;101786.47;5054878;28;20029;-65
2020/12/06 01:55:32;;;;;;;40.95;22.63;;;;;;;9.18;100.00;101784.63;5054643;28;20361;-66
2020/12/06 01:58:17;;;;;;;38.97;22.95;;;;;;;9.17;100.00;101782.88;5054952;28;20381;-65
2020/12/06 02:01:03;;;;;;;38.55;22.23;;;;;;;9.12;100.00;101781.97;5054441;28;20048;-65
2020/12/06 02:03:52;;;;;;;40.28;23.90;;;;;;;9.24;100.00;101792.47;5056168;28;20041;-66
2020/12/06 02:06:38;;;;;;;39.22;22.88;;;;;;;9.15;100.00;101776.75;5060551;28;20025;-66
2020/12/06 02:09:24;;;;;;;36.45;23.17;;;;;;;9.03;100.00;101780.19;5074396;28;20040;-65
2020/12/06 02:12:09;;;;;;;40.03;21.98;;;;;;;9.17;100.00;101775.88;5074634;28;20410;-65
2020/12/06 02:14:55;;;;;;;36.80;21.77;;;;;;;9.10;100.00;101781.09;5074502;28;20135;-65
2020/12/06 02:17:40;;;;;;;41.45;22.85;;;;;;;9.15;100.00;101774.13;5060712;28;20330;-65
2020/12/06 02:20:26;;;;;;;36.75;22.45;;;;;;;9.28;100.00;101783.78;5060466;28;20064;-65
2020/12/06 02:23:11;;;;;;;39.15;21.90;;;;;;;9.15;100.00;101776.75;5060296;28;20421;-65
2020/12/06 02:25:57;;;;;;;38.42;22.17;;;;;;;9.27;100.00;101775.09;5073436;28;20028;-65
2020/12/06 02:28:43;;;;;;;33.38;21.70;;;;;;;9.03;100.00;101780.19;5060279;28;20044;-65
2020/12/06 02:31:28;;;;;;;41.13;21.73;;;;;;;9.04;100.00;101778.44;5074298;28;20037;-65
2020/12/06 02:34:15;;;;;;;39.92;23.02;;;;;;;8.94;100.00;101779.25;5060250;28;20188;-65
2020/12/06 02:37:00;;;;;;;43.83;25.08;;;;;;;8.99;100.00;101781.03;5074076;28;20032;-64
2020/12/06 02:39:45;;;;;;;34.53;22.58;;;;;;;9.18;100.00;101779.41;5073795;28;20115;-65
2020/12/06 02:42:31;;;;;;;40.55;23.67;;;;;;;9.11;100.00;101775.88;5073899;28;20062;-65
2020/12/06 02:45:16;;;;;;;39.53;23.25;;;;;;;8.93;100.00;101778.38;5073850;28;20089;-66
2020/12/06 02:48:01;;;;;;;40.55;23.45;;;;;;;8.92;100.00;101789.69;5073830;28;20101;-65
2020/12/06 02:50:47;;;;;;;40.63;23.85;;;;;;;8.86;100.00;101788.78;5073606;28;20040;-66
2020/12/06 02:53:32;;;;;;;47.22;23.83;;;;;;;9.07;100.00;101788.91;5073727;28;20032;-66
2020/12/06 02:56:18;;;;;;;49.15;24.75;;;;;;;8.67;100.00;101777.34;5073671;28;20039;-64
2020/12/06 02:59:03;;;;;;;41.97;23.85;;;;;;;9.08;100.00;101788.03;5073290;28;20534;-65
2020/12/06 03:01:49;;;;;;;36.15;22.35;;;;;;;8.70;100.00;101781.72;5073580;28;20040;-65
2020/12/06 03:04:34;;;;;;;38.03;22.33;;;;;;;8.89;100.00;101781.81;5065493;28;20111;-66
2020/12/06 03:07:19;;;;;;;38.20;22.58;;;;;;;9.02;100.00;101788.00;5053317;28;20029;-66
2020/12/06 03:10:08;;;;;;;40.70;22.52;;;;;;;8.66;100.00;101783.44;5039319;28;20037;-65
2020/12/06 03:12:53;;;;;;;41.42;22.63;;;;;;;8.60;100.00;101787.75;5053708;28;20083;-65
2020/12/06 03:15:38;;;;;;;41.13;23.20;;;;;;;8.80;100.00;101791.38;5053349;28;20025;-65
2020/12/06 03:18:24;;;;;;;39.67;23.45;;;;;;;8.99;100.00;101781.03;5039455;28;20524;-66
2020/12/06 03:21:09;;;;;;;39.05;22.27;;;;;;;9.15;100.00;101779.38;5053046;28;20120;-66
2020/12/06 03:23:55;;;;;;;40.33;23.77;;;;;;;8.84;100.00;101782.69;5039033;28;20037;-68
2020/12/06 03:26:40;;;;;;;39.72;22.52;;;;;;;8.70;100.00;101776.47;5053148;28;20032;-65
2020/12/06 03:29:25;;;;;;;38.88;23.30;;;;;;;8.78;100.00;101788.75;5053189;28;20116;-66
2020/12/06 03:32:11;;;;;;;42.80;22.95;;;;;;;9.16;100.00;101782.00;5053238;28;20032;-67
2020/12/06 03:34:56;;;;;;;41.70;22.42;;;;;;;8.58;100.00;101786.84;5053101;28;20025;-65
2020/12/06 03:37:42;;;;;;;42.78;22.73;;;;;;;8.77;100.00;101791.34;5052063;28;20029;-66
2020/12/06 03:40:27;;;;;;;37.05;22.05;;;;;;;8.85;100.00;101784.44;5052710;28;20091;-65
2020/12/06 03:43:12;;;;;;;38.95;21.65;;;;;;;8.92;100.00;101792.31;5052677;28;20096;-65
2020/12/06 03:45:58;;;;;;;41.70;23.40;;;;;;;8.62;100.00;101797.34;5052667;28;20048;-66
2020/12/06 03:48:43;;;;;;;36.47;21.98;;;;;;;8.82;100.00;101800.09;5053264;28;20032;-65
2020/12/06 03:51:29;;;;;;;42.38;21.45;;;;;;;8.98;100.00;101791.47;5053027;28;20036;-65
2020/12/06 03:54:14;;;;;;;47.45;22.27;;;;;;;9.01;100.00;101804.56;5052773;28;20040;-65
2020/12/06 03:57:00;;;;;;;36.28;20.73;;;;;;;8.92;100.00;101796.69;5052808;28;20036;-65
2020/12/06 03:59:45;;;;;;;37.88;21.10;;;;;;;9.12;100.00;101800.25;5052524;28;20089;-65
2020/12/06 04:02:30;;;;;;;43.63;22.92;;;;;;;8.82;100.00;101798.34;5052681;28;20040;-65
2020/12/06 04:05:20;;;;;;;37.22;21.75;;;;;;;8.62;100.00;101801.69;5065819;28;20071;-65
2020/12/06 04:08:05;;;;;;;41.05;21.65;;;;;;;8.71;100.00;101806.97;5072151;28;20492;-64
2020/12/06 04:10:51;;;;;;;41.67;20.75;;;;;;;8.92;100.00;101809.75;5058656;28;20178;-66
2020/12/06 04:13:36;;;;;;;42.45;21.88;;;;;;;8.65;100.00;101807.78;5072718;28;20395;-65
2020/12/06 04:16:21;;;;;;;39.47;21.75;;;;;;;9.02;100.00;101803.69;5072621;28;20039;-65
2020/12/06 04:19:07;;;;;;;37.58;21.55;;;;;;;8.98;100.00;101805.44;5058341;28;20040;-65
2020/12/06 04:21:52;;;;;;;40.72;21.63;;;;;;;8.85;100.00;101805.34;5071974;28;20583;-65
2020/12/06 04:24:38;;;;;;;38.70;21.33;;;;;;;8.70;100.00;101806.09;5058984;28;20410;-65
2020/12/06 04:27:23;;;;;;;42.72;23.80;;;;;;;8.74;100.00;101799.16;5072483;28;20372;-66
2020/12/06 04:30:09;;;;;;;43.25;22.00;;;;;;;8.85;100.00;101802.72;5073014;28;20169;-66
2020/12/06 04:32:54;;;;;;;37.88;22.58;;;;;;;9.02;100.00;101804.59;5072811;28;20036;-65
2020/12/06 04:35:39;;;;;;;48.55;24.00;;;;;;;8.59;100.00;101809.47;5073397;28;20047;-66
2020/12/06 04:38:25;;;;;;;42.97;23.50;;;;;;;8.69;100.00;101808.72;5059600;28;20037;-66
2020/12/06 04:41:10;;;;;;;47.53;24.40;;;;;;;8.66;100.00;101814.78;5073469;28;20035;-66
2020/12/06 04:43:56;;;;;;;41.97;24.35;;;;;;;8.79;100.00;101814.00;5073012;28;20047;-65
2020/12/06 04:46:41;;;;;;;45.95;23.75;;;;;;;8.43;100.00;101818.94;5059367;28;20024;-65
2020/12/06 04:49:42;;;;;;;39.42;21.83;;;;;;;8.52;100.00;101812.94;5075831;28;20131;-65
2020/12/06 04:52:36;;;;;;;40.13;23.08;;;;;;;8.49;100.00;101824.19;5079987;28;20082;-65
2020/12/06 04:55:26;;;;;;;40.10;23.85;;;;;;;8.84;100.00;101833.19;5078686;28;20028;-65
2020/12/06 04:58:17;;;;;;;39.40;23.50;;;;;;;8.70;100.00;101821.78;5078531;28;20027;-65
2020/12/06 05:01:03;;;;;;;38.92;22.75;;;;;;;8.52;100.00;101826.00;5078339;28;20042;-65
2020/12/06 05:03:56;;;;;;;38.83;22.63;;;;;;;8.37;100.00;101831.91;5076611;28;20047;-65
2020/12/06 05:06:43;;;;;;;38.53;22.50;;;;;;;8.40;100.00;101834.56;5044064;28;20143;-66
2020/12/06 05:09:35;;;;;;;43.38;23.85;;;;;;;8.17;100.00;101840.41;5058152;28;20025;-65
2020/12/06 05:12:20;;;;;;;39.95;23.35;;;;;;;8.24;100.00;101850.09;5058399;28;20086;-65
2020/12/06 05:15:06;;;;;;;45.20;25.63;;;;;;;8.26;100.00;101841.41;5058130;28;20044;-65
2020/12/06 05:17:54;;;;;;;40.78;23.98;;;;;;;8.11;100.00;101842.94;5058355;28;20534;-65
2020/12/06 05:20:40;;;;;;;42.58;22.83;;;;;;;8.01;100.00;101852.44;5058014;28;20109;-65
2020/12/06 05:23:25;;;;;;;41.30;23.27;;;;;;;8.03;100.00;101852.41;5044098;28;20123;-65
2020/12/06 05:26:11;;;;;;;41.08;22.27;;;;;;;8.19;100.00;101851.72;5058418;28;20040;-64
2020/12/06 05:28:57;;;;;;;40.88;23.13;;;;;;;8.34;100.00;101863.25;5058162;28;20338;-65
2020/12/06 05:31:43;;;;;;;49.17;24.63;;;;;;;7.98;100.00;101868.06;5058181;28;20036;-66
2020/12/06 05:34:28;;;;;;;42.95;23.40;;;;;;;8.14;100.00;101867.38;5057992;28;20032;-65
2020/12/06 05:37:13;;;;;;;50.90;25.55;;;;;;;8.12;100.00;101866.44;5044036;28;20025;-65
2020/12/06 05:40:10;;;;;;;46.55;22.98;;;;;;;7.75;100.00;101871.22;5057974;28;20061;-66
2020/12/06 05:42:56;;;;;;;40.88;21.50;;;;;;;7.59;100.00;101885.81;5043796;28;20485;-65
2020/12/06 05:45:41;;;;;;;39.03;21.77;;;;;;;7.73;100.00;101891.22;5057634;28;20449;-65
2020/12/06 05:48:26;;;;;;;40.33;22.05;;;;;;;8.04;100.00;101885.53;5057790;28;20457;-66
2020/12/06 05:51:14;;;;;;;40.50;22.45;;;;;;;8.12;100.00;101891.69;5057950;28;20044;-66
2020/12/06 05:54:00;;;;;;;44.42;22.10;;;;;;;8.10;100.00;101888.19;5043894;28;20460;-65
2020/12/06 05:56:50;;;;;;;43.13;22.50;;;;;;;7.72;100.00;101886.88;5057947;28;20112;-65
2020/12/06 05:59:35;;;;;;;42.90;23.05;;;;;;;7.84;100.00;101895.69;5057838;28;20037;-65
2020/12/06 06:02:22;;;;;;;47.50;23.27;;;;;;;7.80;100.00;101896.50;5040118;28;20408;-65
2020/12/06 06:05:08;;;;;;;42.67;22.52;;;;;;;8.35;100.00;101905.88;5067106;28;20058;-66
2020/12/06 06:08:03;;;;;;;40.10;23.13;;;;;;;7.82;100.00;101907.88;5074329;28;20364;-64
2020/12/06 06:11:15;;;;;;;45.55;23.38;;;;;;;7.97;100.00;101907.16;5060361;28;20036;-65
2020/12/06 06:14:03;;;;;;;49.55;22.65;;;;;;;7.83;100.00;101907.00;5060494;28;20036;-65
2020/12/06 06:16:48;;;;;;;53.55;25.70;;;;;;;7.74;100.00;101906.00;5074515;28;20376;-66
2020/12/06 06:19:34;;;;;;;44.67;22.67;;;;;;;7.67;100.00;101912.88;5074452;28;20094;-66
2020/12/06 06:22:25;;;;;;;45.53;21.90;;;;;;;7.52;100.00;101914.41;5074171;28;20036;-66
2020/12/06 06:25:12;;;;;;;45.70;23.27;;;;;;;7.83;100.00;101917.44;5074244;28;20368;-65
2020/12/06 06:27:57;;;;;;;43.13;23.52;;;;;;;7.80;100.00;101908.72;5059897;28;20032;-65
2020/12/06 06:30:42;;;;;;;40.95;23.90;;;;;;;7.57;100.00;101915.34;5073954;28;20044;-66
2020/12/06 06:33:28;;;;;;;47.47;24.10;;;;;;;7.46;100.00;101911.69;5060333;28;20115;-65
2020/12/06 06:36:20;;;;;;;47.97;24.70;;;;;;;7.70;100.00;101918.13;5073996;28;20040;-66
2020/12/06 06:39:05;;;;;;;46.97;25.20;;;;;;;7.56;100.00;101924.03;5073853;28;20344;-66
2020/12/06 06:42:01;;;;;;;46.63;24.63;;;;;;;7.63;100.00;101933.69;5073840;28;20048;-66
2020/12/06 06:44:47;;;;;;;41.85;22.10;;;;;;;7.42;100.00;101928.16;5059901;28;20070;-66
2020/12/06 06:47:36;;;;;;;42.55;22.35;;;;;;;7.44;100.00;101929.94;5073653;28;20056;-65
2020/12/06 06:50:21;;;;;;;41.08;23.17;;;;;;;7.47;100.00;101936.94;5073690;28;20044;-66
2020/12/06 06:53:08;;;;;;;42.80;22.42;;;;;;;7.40;100.00;101935.09;5059573;28;20028;-66
2020/12/06 06:55:54;;;;;;;44.03;24.02;;;;;;;7.35;100.00;101929.81;5059395;28;20483;-65
2020/12/06 06:58:39;;;;;;;44.75;23.85;;;;;;;7.37;100.00;101929.81;5073808;28;20036;-65
2020/12/06 07:01:25;;;;;;;47.78;24.27;;;;;;;7.40;100.00;101930.72;5073473;28;20352;-65
2020/12/06 07:04:18;;;;;;;46.65;24.70;;;;;;;7.28;100.00;101922.72;5055807;28;20044;-66
2020/12/06 07:07:04;;;;;;;56.38;25.83;;;;;;;7.17;100.00;101928.66;5039469;28;20032;-64
2020/12/06 07:09:49;;;;;;;48.60;24.05;;;;;;;7.53;100.00;101940.50;5053406;28;20063;-65
2020/12/06 07:12:56;;;;;;;51.42;25.33;;;;;;;7.27;100.00;101939.25;5053302;28;20052;-65
2020/12/06 07:15:43;;;;;;;49.80;24.70;;;;;;;7.06;100.00;101948.44;5053420;28;20064;-65
2020/12/06 07:18:29;;;;;;;52.70;25.42;;;;;;;6.81;100.00;101957.59;5053378;28;20025;-65
2020/12/06 07:21:14;;;;;;;48.75;24.92;;;;;;;6.89;100.00;101956.00;5053110;28;20040;-65
2020/12/06 07:24:00;;;;;;;52.97;25.70;;;;;;;7.00;100.00;101961.38;5052973;28;20033;-66
2020/12/06 07:26:47;;;;;;;50.05;24.55;;;;;;;6.94;100.00;101958.66;5052994;28;20076;-65
2020/12/06 07:29:32;;;;;;;48.92;25.17;;;;;;;7.02;100.00;101965.78;5052870;28;20041;-65
2020/12/06 07:32:21;;;;;;;54.28;25.83;;;;;;;6.87;100.00;101959.44;5053136;28;20036;-66
2020/12/06 07:35:09;;;;;;;48.13;24.42;;;;;;;6.74;100.00;101953.13;5052621;28;20044;-66
2020/12/06 07:37:56;;;;;;;46.78;23.77;;;;;;;6.76;100.00;101948.84;5039069;28;20028;-66
2020/12/06 07:40:41;;;;;;;45.67;24.67;;;;;;;7.05;100.00;101947.59;5052868;28;20036;-65
2020/12/06 07:43:26;;;;;;;47.00;25.33;;;;;;;6.75;100.00;101954.00;5052752;28;20127;-66
2020/12/06 07:46:18;;;;;;;49.20;24.88;;;;;;;6.90;100.00;101954.25;5052968;28;20029;-64
2020/12/06 07:49:03;;;;;;;44.95;23.98;;;;;;;6.84;100.00;101959.38;5038499;28;20457;-65
2020/12/06 07:51:48;;;;;;;53.13;27.10;;;;;;;6.71;100.00;101962.63;5052370;28;20465;-65
2020/12/06 07:54:34;;;;;;;53.15;26.75;;;;;;;6.81;100.00;101956.69;5038916;28;20468;-64
2020/12/06 07:57:38;;;;;;;54.67;26.67;;;;;;;6.84;100.00;101954.16;5052771;28;20097;-65
2020/12/06 08:00:38;;;;;;;52.40;26.80;;;;;;;7.18;100.00;101959.94;5038303;28;20071;-65
2020/12/06 08:03:24;;;;;;;50.80;26.55;;;;;;;6.96;100.00;101959.59;5052601;28;20036;-66
2020/12/06 08:06:14;;;;;;;51.42;26.20;;;;;;;7.35;100.00;101955.88;5052453;28;20122;-65
2020/12/06 08:09:02;;;;;;;52.30;27.77;;;;;;;7.18;100.00;101952.13;5052340;28;20033;-65
2020/12/06 08:11:51;;;;;;;51.50;26.15;;;;;;;7.63;100.00;101951.97;5052326;28;20095;-65
2020/12/06 08:14:37;;;;;;;48.33;24.23;;;;;;;7.01;100.00;101952.72;5052138;28;20043;-65
2020/12/06 08:17:23;;;;;;;40.67;22.55;;;;;;;7.00;100.00;101964.88;5052503;28;20087;-66
2020/12/06 08:20:13;;;;;;;40.42;21.58;;;;;;;7.09;100.00;101957.22;5038029;28;20028;-66
2020/12/06 08:22:59;;;;;;;42.47;22.30;;;;;;;7.21;100.00;101956.50;5052083;28;20033;-66
2020/12/06 08:25:48;;;;;;;39.33;21.83;;;;;;;6.94;100.00;101954.34;5051671;28;20032;-66
2020/12/06 08:28:33;;;;;;;39.72;21.73;;;;;;;6.83;100.00;101957.63;5051642;28;20065;-65
2020/12/06 08:31:20;;;;;;;41.40;21.33;;;;;;;6.72;100.00;101961.75;5051904;28;20090;-66
2020/12/06 08:34:10;;;;;;;44.85;24.33;;;;;;;6.99;100.00;101964.84;5051756;28;20028;-66
2020/12/06 08:37:20;;;;;;;61.15;35.40;;;;;;;6.87;100.00;101949.00;5037895;28;20064;-66
2020/12/06 08:40:05;;;;;;;48.33;28.40;;;;;;;6.94;100.00;101936.09;5051547;28;20068;-66
2020/12/06 08:43:00;;;;;;;46.78;24.55;;;;;;;6.86;100.00;101948.13;5051741;28;20079;-65
2020/12/06 08:45:45;;;;;;;34.40;20.13;;;;;;;7.06;100.00;101936.31;5037630;28;20033;-65
2020/12/06 08:48:31;;;;;;;37.00;19.55;;;;;;;6.83;100.00;101942.84;5051559;28;20036;-64
2020/12/06 08:51:33;;;;;;;33.17;19.13;;;;;;;6.85;100.00;101937.66;5037761;28;20052;-64
2020/12/06 08:54:36;;;;;;;33.50;18.23;;;;;;;6.90;100.00;101949.03;5037762;28;20043;-65
2020/12/06 08:57:25;;;;;;;35.40;18.45;;;;;;;6.77;100.00;101945.38;5038499;28;20033;-65
2020/12/06 09:00:11;;;;;;;34.55;19.25;;;;;;;7.04;100.00;101947.56;5051484;28;20040;-66
2020/12/06 09:02:59;;;;;;;29.27;17.58;;;;;;;7.07;100.00;101932.84;5051987;28;20119;-65
2020/12/06 09:05:47;;;;;;;33.85;19.27;;;;;;;7.17;100.00;101928.66;5062627;28;20056;-65
2020/12/06 09:08:33;;;;;;;36.75;20.52;;;;;;;6.75;100.00;101926.22;5051629;28;20072;-65
2020/12/06 09:11:20;;;;;;;35.38;19.65;;;;;;;6.74;100.00;101932.28;5037888;28;20037;-65
2020/12/06 09:14:06;;;;;;;30.42;18.05;;;;;;;6.86;100.00;101926.41;5051519;28;20360;-64
2020/12/06 09:16:52;;;;;;;31.65;17.52;;;;;;;6.88;100.00;101922.09;5051855;28;20055;-64
2020/12/06 09:19:37;;;;;;;32.33;17.55;;;;;;;6.86;100.00;101922.06;5065408;28;20034;-65
2020/12/06 09:22:22;;;;;;;31.02;17.58;;;;;;;7.07;100.00;101913.75;5051703;28;20123;-65
2020/12/06 09:25:08;;;;;;;32.17;17.33;;;;;;;6.80;100.00;101902.88;5051452;28;20033;-65
2020/12/06 09:27:55;;;;;;;36.25;19.83;;;;;;;6.95;100.00;101909.19;5051432;28;20121;-65
2020/12/06 09:30:43;;;;;;;31.63;18.92;;;;;;;6.82;100.00;101904.63;5051518;28;20033;-64
2020/12/06 09:33:29;;;;;;;28.08;17.73;;;;;;;6.86;100.00;101905.56;5051737;28;20063;-65
2020/12/06 09:36:15;;;;;;;34.53;19.23;;;;;;;6.87;100.00;101900.38;5052264;28;20051;-65
2020/12/06 09:39:00;;;;;;;31.20;20.73;;;;;;;7.04;100.00;101905.88;5055332;28;20296;-65
2020/12/06 09:41:46;;;;;;;33.00;18.80;;;;;;;7.08;100.00;101897.25;5055131;28;20572;-65
2020/12/06 09:44:32;;;;;;;29.90;17.52;;;;;;;7.01;100.00;101879.75;5054963;28;20112;-66
2020/12/06 09:47:17;;;;;;;31.92;17.40;;;;;;;7.18;100.00;101881.75;5054673;28;20453;-66
2020/12/06 09:50:03;;;;;;;28.75;17.02;;;;;;;7.10;100.00;101878.16;5055143;28;20119;-66
2020/12/06 09:52:48;;;;;;;29.00;17.30;;;;;;;7.17;100.00;101871.31;5054829;28;20136;-65
2020/12/06 09:55:34;;;;;;;34.95;20.40;;;;;;;6.83;100.00;101871.66;5054717;28;20041;-65
2020/12/06 09:58:19;;;;;;;27.15;16.73;;;;;;;6.77;100.00;101879.38;5055142;28;20126;-65
2020/12/06 10:01:04;;;;;;;27.23;15.68;;;;;;;6.73;100.00;101874.97;5054570;28;20099;-65
2020/12/06 10:03:51;;;;;;;26.83;15.95;;;;;;;6.67;100.00;101867.06;5042551;28;20028;-66
2020/12/06 10:06:36;;;;;;;26.42;15.20;;;;;;;7.04;100.00;101856.34;5074612;28;20062;-65
2020/12/06 10:09:22;;;;;;;25.88;14.93;;;;;;;7.04;100.00;101864.19;5074851;28;20146;-65
2020/12/06 10:12:07;;;;;;;32.72;19.67;;;;;;;6.90;100.00;101842.22;5074860;28;20040;-65
2020/12/06 10:14:52;;;;;;;25.70;16.05;;;;;;;7.05;100.00;101842.47;5074758;28;20040;-65
2020/12/06 10:17:38;;;;;;;28.58;17.35;;;;;;;6.95;100.00;101848.41;5074720;28;20028;-64
2020/12/06 10:20:24;;;;;;;28.10;17.13;;;;;;;7.18;100.00;101839.19;5074338;28;20043;-65
2020/12/06 10:23:09;;;;;;;28.95;15.68;;;;;;;6.92;100.00;101832.72;5074663;28;20051;-65
2020/12/06 10:25:55;;;;;;;28.73;16.92;;;;;;;7.14;100.00;101840.00;5074156;28;20043;-65
2020/12/06 10:28:40;;;;;;;27.73;16.90;;;;;;;7.03;100.00;101832.03;5060191;28;20064;-66
2020/12/06 10:31:26;;;;;;;28.20;17.27;;;;;;;6.96;100.00;101829.31;5074276;28;20032;-66
2020/12/06 10:34:11;;;;;;;27.55;16.80;;;;;;;7.16;100.00;101830.47;5074021;28;20460;-65
2020/12/06 10:36:58;;;;;;;23.67;15.35;;;;;;;6.97;100.00;101828.47;5074001;28;20035;-65
2020/12/06 10:39:44;;;;;;;23.13;15.57;;;;;;;7.14;100.00;101824.34;5073762;28;20177;-66
2020/12/06 10:42:29;;;;;;;24.08;15.70;;;;;;;7.08;100.00;101822.53;5073950;28;20076;-65
2020/12/06 10:45:15;;;;;;;27.33;15.45;;;;;;;7.02;100.00;101825.06;5073887;28;20032;-65
2020/12/06 10:48:02;;;;;;;25.75;15.32;;;;;;;6.94;100.00;101820.59;5073320;28;20178;-65
2020/12/06 10:50:54;;;;;;;27.60;16.23;;;;;;;6.68;100.00;101816.72;5073486;28;20123;-64
2020/12/06 10:53:40;;;;;;;30.60;18.17;;;;;;;6.75;100.00;101802.97;5060113;28;20066;-66
2020/12/06 10:56:26;;;;;;;38.20;22.23;;;;;;;6.98;100.00;101818.06;5074117;28;20040;-65
2020/12/06 10:59:12;;;;;;;26.63;16.23;;;;;;;6.64;100.00;101815.81;5073877;28;20064;-66
2020/12/06 11:01:58;;;;;;;24.58;15.25;;;;;;;6.80;100.00;101817.81;5073257;28;20041;-65
2020/12/06 11:04:43;;;;;;;28.70;16.38;;;;;;;7.25;100.00;101813.25;5064628;28;20037;-65
2020/12/06 11:07:29;;;;;;;24.40;14.98;;;;;;;7.10;100.00;101810.41;5053424;28;20029;-65
2020/12/06 11:10:14;;;;;;;27.55;16.38;;;;;;;7.33;100.00;101813.31;5053446;28;20037;-65
2020/12/06 11:13:00;;;;;;;26.85;16.40;;;;;;;7.20;100.00;101806.22;5053688;28;20068;-65
2020/12/06 11:15:45;;;;;;;26.25;16.65;;;;;;;7.22;100.00;101810.59;5053339;28;20372;-66
2020/12/06 11:18:30;;;;;;;25.50;15.55;;;;;;;7.05;100.00;101800.78;5053649;28;20112;-66
2020/12/06 11:21:23;;;;;;;22.05;14.68;;;;;;;7.26;100.00;101803.66;5039428;28;20033;-65
2020/12/06 11:24:08;;;;;;;24.90;14.73;;;;;;;7.12;100.00;101798.28;5053178;28;20079;-67
2020/12/06 11:26:53;;;;;;;23.70;15.57;;;;;;;7.15;100.00;101794.84;5039110;28;20488;-66
2020/12/06 11:29:39;;;;;;;22.92;13.70;;;;;;;6.86;100.00;101786.63;5039328;28;20029;-66
2020/12/06 11:32:25;;;;;;;24.17;15.18;;;;;;;6.99;100.00;101791.16;5039690;28;20028;-65
2020/12/06 11:35:10;;;;;;;22.63;14.70;;;;;;;7.12;100.00;101790.44;5039292;28;20094;-64
2020/12/06 11:37:56;;;;;;;21.98;14.65;;;;;;;6.96;100.00;101785.91;5053371;28;20075;-65
2020/12/06 11:40:41;;;;;;;23.08;13.63;;;;;;;6.76;100.00;101781.25;5053014;28;20120;-65
2020/12/06 11:43:27;;;;;;;20.98;13.82;;;;;;;6.94;100.00;101781.50;5052938;28;20077;-65
2020/12/06 11:46:13;;;;;;;22.45;15.25;;;;;;;7.07;100.00;101773.88;5053059;28;20535;-64
2020/12/06 11:48:58;;;;;;;22.15;13.63;;;;;;;7.23;100.00;101778.44;5053095;28;20514;-67
2020/12/06 11:51:43;;;;;;;21.48;15.10;;;;;;;7.43;100.00;101776.13;5052907;28;20045;-66
2020/12/06 11:54:29;;;;;;;20.55;14.30;;;;;;;7.09;100.00;101768.69;5052504;28;20457;-66
2020/12/06 11:57:14;;;;;;;22.45;14.57;;;;;;;7.06;100.00;101760.84;5053238;28;20033;-64
2020/12/06 12:00:00;;;;;;;23.23;14.02;;;;;;;6.90;100.00;101766.69;5051915;28;20036;-65
2020/12/06 12:02:45;;;;;;;22.83;15.30;;;;;;;6.89;100.00;101765.84;5052897;28;20046;-66
2020/12/06 12:05:30;;;;;;;22.10;14.60;;;;;;;6.89;100.00;101772.75;5067960;28;20411;-65
2020/12/06 12:08:16;;;;;;;24.35;14.82;;;;;;;6.89;100.00;101770.16;5072276;28;20417;-65
2020/12/06 12:11:03;;;;;;;23.45;14.77;;;;;;;7.14;100.00;101772.22;5072249;28;20453;-64
2020/12/06 12:13:48;;;;;;;21.90;14.40;;;;;;;7.06;100.00;101768.66;5058771;28;20476;-66
2020/12/06 12:16:33;;;;;;;21.20;13.95;;;;;;;7.22;100.00;101781.03;5072276;28;20453;-65
2020/12/06 12:19:19;;;;;;;21.70;14.27;;;;;;;6.90;100.00;101782.31;5058691;28;20040;-66
2020/12/06 12:22:04;;;;;;;24.42;14.63;;;;;;;7.10;100.00;101779.16;5072678;28;20040;-66
2020/12/06 12:24:50;;;;;;;23.58;14.73;;;;;;;7.51;100.00;101790.97;5072609;28;20040;-66
2020/12/06 12:27:35;;;;;;;24.40;15.63;;;;;;;7.68;100.00;101788.56;5072324;28;20024;-65
2020/12/06 12:30:21;;;;;;;23.23;15.05;;;;;;;7.62;100.00;101788.47;5072218;28;20445;-65
2020/12/06 12:33:06;;;;;;;26.80;15.93;;;;;;;7.15;100.00;101774.00;5072920;28;20035;-65
2020/12/06 12:35:52;;;;;;;26.63;15.93;;;;;;;7.15;100.00;101774.88;5071996;28;20487;-65
2020/12/06 12:38:37;;;;;;;25.88;17.00;;;;;;;7.16;100.00;101778.38;5072800;28;20062;-66